createdAt,value
2023-01-13T00:01:28.766Z,4.43
2023-01-13T00:03:56.799Z,4.41
2023-01-13T00:06:25.558Z,4.40
2023-01-13T00:08:54.123Z,4.39
2023-01-13T00:11:22.635Z,4.36
2023-01-13T00:13:50.453Z,4.35
2023-01-13T00:16:20.438Z,4.35
2023-01-13T00:18:50.665Z,4.34
2023-01-13T00:21:21.531Z,4.30
2023-01-13T00:23:51.285Z,4.27
2023-01-13T00:26:22.548Z,4.26
2023-01-13T00:28:58.186Z,4.22
2023-01-13T00:31:27.484Z,4.20
2023-01-13T00:34:01.692Z,4.17
2023-01-13T00:36:30.576Z,4.16
2023-01-13T00:38:58.753Z,4.14
2023-01-13T00:41:27.577Z,4.13
2023-01-13T00:43:57.650Z,4.12
2023-01-13T00:46:25.808Z,4.08
2023-01-13T00:48:53.688Z,4.09
2023-01-13T00:51:21.941Z,4.06
2023-01-13T00:53:52.758Z,4.06
2023-01-13T00:56:39.262Z,4.05
2023-01-13T00:58:56.070Z,4.07
2023-01-13T01:01:25.077Z,4.09
2023-01-13T01:03:54.596Z,4.12
2023-01-13T01:06:26.025Z,4.13
2023-01-13T01:08:56.770Z,4.14
2023-01-13T01:11:29.155Z,4.14
2023-01-13T01:13:59.769Z,4.14
2023-01-13T01:16:29.922Z,4.19
2023-01-13T01:18:58.741Z,4.23
2023-01-13T01:21:28.031Z,4.24
2023-01-13T01:24:00.044Z,4.27
2023-01-13T01:26:29.590Z,4.27
2023-01-13T01:28:57.278Z,4.29
2023-01-13T01:31:30.953Z,4.30
2023-01-13T01:34:00.699Z,4.28
2023-01-13T01:36:30.989Z,4.29
2023-01-13T01:38:59.890Z,4.26
2023-01-13T01:41:31.663Z,4.26
2023-01-13T01:44:10.701Z,4.29
2023-01-13T01:46:44.112Z,4.31
2023-01-13T01:49:32.920Z,4.34
2023-01-13T01:52:06.067Z,4.37
2023-01-13T01:54:57.458Z,4.41
2023-01-13T01:57:44.933Z,4.44
2023-01-13T02:00:13.701Z,4.44
2023-01-13T02:02:46.326Z,4.41
2023-01-13T02:05:15.322Z,4.41
2023-01-13T02:07:47.282Z,4.39
2023-01-13T02:10:19.339Z,4.41
2023-01-13T02:12:49.349Z,4.41
2023-01-13T02:15:24.942Z,4.44
2023-01-13T02:18:13.334Z,4.43
2023-01-13T02:21:19.682Z,4.45
2023-01-13T02:24:19.916Z,4.46
2023-01-13T02:27:24.414Z,4.48
2023-01-13T02:30:32.457Z,4.49
2023-01-13T02:33:17.859Z,4.50
2023-01-13T02:36:14.516Z,4.52
2023-01-13T02:38:53.811Z,4.56
2023-01-13T02:42:06.358Z,4.59
2023-01-13T02:44:45.326Z,4.61
2023-01-13T02:47:20.761Z,4.63
2023-01-13T02:49:58.927Z,4.64
2023-01-13T02:52:37.545Z,4.65
2023-01-13T02:55:18.473Z,4.67
2023-01-13T02:57:48.176Z,4.69
2023-01-13T03:00:18.489Z,4.71
2023-01-13T03:02:48.835Z,4.75
2023-01-13T03:05:17.278Z,4.76
2023-01-13T03:08:32.501Z,4.78
2023-01-13T03:11:09.999Z,4.81
2023-01-13T03:14:02.199Z,4.83
2023-01-13T03:17:03.927Z,4.83
2023-01-13T03:19:45.959Z,4.83
2023-01-13T03:22:40.839Z,4.85
2023-01-13T03:25:22.917Z,4.87
2023-01-13T03:28:10.861Z,4.87
2023-01-13T03:30:42.943Z,4.87
2023-01-13T03:33:17.951Z,4.88
2023-01-13T03:35:50.514Z,4.88
2023-01-13T03:38:35.565Z,4.88
2023-01-13T03:41:14.681Z,4.87
2023-01-13T03:44:17.296Z,4.86
2023-01-13T03:47:14.568Z,4.85
2023-01-13T03:49:47.738Z,4.83
2023-01-13T03:52:37.568Z,4.84
2023-01-13T03:55:13.739Z,4.86
2023-01-13T03:57:56.059Z,4.87
2023-01-13T04:00:31.790Z,4.87
2023-01-13T04:03:07.756Z,4.87
2023-01-13T04:05:39.949Z,4.86
2023-01-13T04:08:18.796Z,4.86
2023-01-13T04:10:54.966Z,4.85
2023-01-13T04:13:27.023Z,4.85
2023-01-13T04:15:55.169Z,4.85
2023-01-13T04:18:28.727Z,4.84
2023-01-13T04:21:00.398Z,4.83
2023-01-13T04:23:29.353Z,4.85
2023-01-13T04:25:57.311Z,4.85
2023-01-13T04:28:26.167Z,4.84
2023-01-13T04:30:54.401Z,4.84
2023-01-13T04:33:22.118Z,4.83
2023-01-13T04:35:51.921Z,4.81
2023-01-13T04:38:24.482Z,4.78
2023-01-13T04:40:54.693Z,4.77
2023-01-13T04:43:22.331Z,4.76
2023-01-13T04:45:50.243Z,4.75
2023-01-13T04:48:17.911Z,4.73
2023-01-13T04:50:45.649Z,4.72
2023-01-13T04:53:13.413Z,4.73
2023-01-13T04:55:41.362Z,4.73
2023-01-13T04:58:10.611Z,4.73
2023-01-13T05:00:38.682Z,4.72
2023-01-13T05:03:06.765Z,4.72
2023-01-13T05:05:34.803Z,4.73
2023-01-13T05:08:02.993Z,4.74
2023-01-13T05:10:31.041Z,4.73
2023-01-13T05:13:17.171Z,4.72
2023-01-13T05:16:05.185Z,4.69
2023-01-13T05:18:33.202Z,4.70
2023-01-13T05:21:01.585Z,4.70
2023-01-13T05:23:47.503Z,4.67
2023-01-13T05:26:15.556Z,4.68
2023-01-13T05:28:43.892Z,4.66
2023-01-13T05:31:14.395Z,4.65
2023-01-13T05:33:42.467Z,4.64
2023-01-13T05:36:10.295Z,4.65
2023-01-13T05:38:38.105Z,4.64
2023-01-13T05:41:24.445Z,4.64
2023-01-13T05:43:52.278Z,4.65
2023-01-13T05:46:20.360Z,4.65
2023-01-13T05:48:48.114Z,4.66
2023-01-13T05:51:16.045Z,4.68
2023-01-13T05:53:43.679Z,4.70
2023-01-13T05:56:12.770Z,4.71
2023-01-13T05:58:40.361Z,4.71
2023-01-13T06:01:09.327Z,4.75
2023-01-13T06:03:37.988Z,4.76
2023-01-13T06:06:08.120Z,4.76
2023-01-13T06:08:39.281Z,4.77
2023-01-13T06:11:06.371Z,4.76
2023-01-13T06:13:34.219Z,4.76
2023-01-13T06:16:02.345Z,4.77
2023-01-13T06:18:30.405Z,4.78
2023-01-13T06:20:58.239Z,4.79
2023-01-13T06:23:26.526Z,4.80
2023-01-13T06:26:02.252Z,4.82
2023-01-13T06:28:30.491Z,4.84
2023-01-13T06:31:03.028Z,4.83
2023-01-13T06:33:36.480Z,4.83
2023-01-13T06:36:15.404Z,4.85
2023-01-13T06:38:47.415Z,4.86
2023-01-13T06:41:16.229Z,4.86
2023-01-13T06:43:44.223Z,4.86
2023-01-13T06:46:12.186Z,4.88
2023-01-13T06:48:40.311Z,4.88
2023-01-13T06:51:08.285Z,4.88
2023-01-13T06:53:36.241Z,4.89
2023-01-13T06:56:04.591Z,4.90
2023-01-13T06:58:32.243Z,4.91
2023-01-13T07:01:01.354Z,4.93
2023-01-13T07:03:29.653Z,4.94
2023-01-13T07:05:58.280Z,4.95
2023-01-13T07:08:27.595Z,4.96
2023-01-13T07:10:55.702Z,4.96
2023-01-13T07:13:42.055Z,4.95
2023-01-13T07:16:09.956Z,4.95
2023-01-13T07:18:38.256Z,4.97
2023-01-13T07:21:09.947Z,4.97
2023-01-13T07:23:41.873Z,4.99
2023-01-13T07:26:10.810Z,4.99
2023-01-13T07:28:39.543Z,5.01
2023-01-13T07:31:17.641Z,5.02
2023-01-13T07:33:45.506Z,5.06
2023-01-13T07:36:14.772Z,5.07
2023-01-13T07:38:43.999Z,5.11
2023-01-13T07:41:32.594Z,5.13
2023-01-13T07:44:02.925Z,5.14
2023-01-13T07:46:32.252Z,5.14
2023-01-13T07:49:00.101Z,5.14
2023-01-13T07:51:29.849Z,5.11
2023-01-13T07:53:58.247Z,5.08
2023-01-13T07:56:26.196Z,5.10
2023-01-13T07:58:54.009Z,5.11
2023-01-13T08:01:22.060Z,5.11
2023-01-13T08:03:50.013Z,5.12
2023-01-13T08:06:18.387Z,5.11
2023-01-13T08:08:46.402Z,5.13
2023-01-13T08:11:14.412Z,5.16
2023-01-13T08:13:42.437Z,5.18
2023-01-13T08:16:15.624Z,5.19
2023-01-13T08:18:47.599Z,5.18
2023-01-13T08:21:16.553Z,5.18
2023-01-13T08:23:45.459Z,5.19
2023-01-13T08:26:16.863Z,5.19
2023-01-13T08:28:45.778Z,5.19
2023-01-13T08:31:16.634Z,5.17
2023-01-13T08:33:44.797Z,5.13
2023-01-13T08:36:13.382Z,5.09
2023-01-13T08:38:41.972Z,5.03
2023-01-13T08:41:17.724Z,5.00
2023-01-13T08:43:45.297Z,4.99
2023-01-13T08:46:13.306Z,4.99
2023-01-13T08:48:41.777Z,5.01
2023-01-13T08:51:11.052Z,5.05
2023-01-13T08:53:38.733Z,5.10
2023-01-13T08:56:13.929Z,5.12
2023-01-13T08:58:41.832Z,5.14
2023-01-13T09:01:13.873Z,5.14
2023-01-13T09:03:41.948Z,5.18
2023-01-13T09:06:09.877Z,5.21
2023-01-13T09:08:37.782Z,5.24
2023-01-13T09:11:07.576Z,5.25
2023-01-13T09:13:35.777Z,5.23
2023-01-13T09:16:04.054Z,5.20
2023-01-13T09:18:32.403Z,5.18
2023-01-13T09:21:00.469Z,5.16
2023-01-13T09:23:28.476Z,5.18
2023-01-13T09:25:56.529Z,5.23
2023-01-13T09:28:27.075Z,5.28
2023-01-13T09:30:55.007Z,5.29
2023-01-13T09:33:42.411Z,5.29
2023-01-13T09:36:10.585Z,5.31
2023-01-13T09:38:38.753Z,5.32
2023-01-13T09:41:08.598Z,5.33
2023-01-13T09:43:53.890Z,5.30
2023-01-13T09:46:46.726Z,5.28
2023-01-13T09:49:25.345Z,5.30
2023-01-13T09:52:04.104Z,5.34
2023-01-13T09:54:42.623Z,5.35
2023-01-13T09:57:15.958Z,5.39
2023-01-13T09:59:44.956Z,5.40
2023-01-13T10:02:33.127Z,5.43
2023-01-13T10:05:32.041Z,5.49
2023-01-13T10:08:13.801Z,5.57
2023-01-13T10:10:57.652Z,5.64
2023-01-13T10:13:30.752Z,5.68
2023-01-13T10:16:15.414Z,5.76
2023-01-13T10:19:15.082Z,5.79
2023-01-13T10:22:00.479Z,5.80
2023-01-13T10:25:05.217Z,5.78
2023-01-13T10:27:39.198Z,5.82
2023-01-13T10:30:21.633Z,5.90
2023-01-13T10:33:20.253Z,5.95
2023-01-13T10:36:05.221Z,6.03
2023-01-13T10:38:40.571Z,6.11
2023-01-13T10:41:20.065Z,6.16
2023-01-13T10:44:08.572Z,6.21
2023-01-13T10:46:53.069Z,6.27
2023-01-13T10:49:39.683Z,6.32
2023-01-13T10:52:29.707Z,6.37
2023-01-13T10:54:58.220Z,6.40
2023-01-13T10:57:28.240Z,6.45
2023-01-13T10:59:56.466Z,6.50
2023-01-13T11:02:32.840Z,6.54
2023-01-13T11:05:23.229Z,6.58
2023-01-13T11:07:54.600Z,6.61
2023-01-13T11:10:32.209Z,6.67
2023-01-13T11:13:23.619Z,6.69
2023-01-13T11:16:09.472Z,6.67
2023-01-13T11:18:54.181Z,6.66
2023-01-13T11:21:29.957Z,6.69
2023-01-13T11:24:08.179Z,6.76
2023-01-13T11:26:47.815Z,6.83
2023-01-13T11:29:48.949Z,6.90
2023-01-13T11:32:23.310Z,6.94
2023-01-13T11:35:05.698Z,6.98
2023-01-13T11:37:37.616Z,6.97
2023-01-13T11:40:29.119Z,6.97
2023-01-13T11:43:20.714Z,7.09
2023-01-13T11:45:53.687Z,7.17
2023-01-13T11:48:27.968Z,7.22
2023-01-13T11:51:23.009Z,7.25
2023-01-13T11:54:29.499Z,7.23
2023-01-13T11:57:34.364Z,7.18
2023-01-13T12:00:33.423Z,7.23
2023-01-13T12:03:35.783Z,7.26
2023-01-13T12:06:35.304Z,7.34
2023-01-13T12:09:36.076Z,7.37
2023-01-13T12:12:32.345Z,7.47
2023-01-13T12:15:42.953Z,7.57
2023-01-13T12:18:31.467Z,7.62
2023-01-13T12:21:22.119Z,7.66
2023-01-13T12:24:12.033Z,7.61
2023-01-13T12:26:45.937Z,7.60
2023-01-13T12:29:18.650Z,7.60
2023-01-13T12:31:49.236Z,7.64
2023-01-13T12:34:40.308Z,7.60
2023-01-13T12:41:25.284Z,7.65
2023-01-13T12:47:51.728Z,7.96
2023-01-13T12:51:03.383Z,8.07
2023-01-13T12:53:54.353Z,8.11
2023-01-13T12:56:50.339Z,8.02
2023-01-13T12:59:40.652Z,8.03
2023-01-13T13:02:18.645Z,8.02
2023-01-13T13:04:51.766Z,8.04
2023-01-13T13:07:35.069Z,8.18
2023-01-13T13:10:28.758Z,8.32
2023-01-13T13:13:17.992Z,8.46
2023-01-13T13:15:48.700Z,8.59
2023-01-13T13:18:27.683Z,8.71
2023-01-13T13:21:06.523Z,8.77
2023-01-13T13:24:04.322Z,8.83
2023-01-13T13:26:46.274Z,8.88
2023-01-13T13:29:47.519Z,8.91
2023-01-13T13:32:57.125Z,8.91
2023-01-13T13:36:03.854Z,8.82
2023-01-13T13:39:03.828Z,8.76
2023-01-13T13:41:54.074Z,8.64
2023-01-13T13:44:49.023Z,8.40
2023-01-13T13:47:17.313Z,8.19
2023-01-13T13:49:50.455Z,8.11
2023-01-13T13:52:26.871Z,8.07
2023-01-13T13:55:00.108Z,8.00
2023-01-13T13:57:41.308Z,7.98
2023-01-13T14:00:37.569Z,7.94
2023-01-13T14:03:26.284Z,7.92
2023-01-13T14:06:00.262Z,7.87
2023-01-13T14:08:34.447Z,7.84
2023-01-13T14:11:02.070Z,7.79
2023-01-13T14:13:31.719Z,7.74
2023-01-13T14:16:03.088Z,7.67
2023-01-13T14:18:35.163Z,7.55
2023-01-13T14:21:08.562Z,7.42
2023-01-13T14:23:36.509Z,7.37
2023-01-13T14:26:11.827Z,7.32
2023-01-13T14:28:40.785Z,7.30
2023-01-13T14:31:09.752Z,7.27
2023-01-13T14:33:47.860Z,7.25
2023-01-13T14:36:39.128Z,7.21
2023-01-13T14:39:16.300Z,7.19
2023-01-13T14:41:49.395Z,7.13
2023-01-13T14:45:09.743Z,7.08
2023-01-13T14:55:21.576Z,6.96
2023-01-13T15:01:45.276Z,6.90
2023-01-13T15:08:03.175Z,6.83
2023-01-13T15:11:03.651Z,6.80
2023-01-13T15:13:53.162Z,6.77
2023-01-13T15:16:25.428Z,6.75
2023-01-13T15:19:01.313Z,6.71
2023-01-13T15:21:37.111Z,6.68
2023-01-13T15:24:06.130Z,6.66
2023-01-13T15:26:34.695Z,6.63
2023-01-13T15:29:04.791Z,6.62
2023-01-13T15:31:32.670Z,6.60
2023-01-13T15:34:00.569Z,6.58
2023-01-13T15:36:31.939Z,6.58
2023-01-13T15:39:01.283Z,6.56
2023-01-13T15:41:47.753Z,6.53
2023-01-13T15:44:35.102Z,6.51
2023-01-13T15:47:06.694Z,6.49
2023-01-13T15:49:43.173Z,6.48
2023-01-13T15:52:24.362Z,6.44
2023-01-13T15:54:53.711Z,6.38
2023-01-13T15:57:39.783Z,6.35
2023-01-13T16:00:13.664Z,6.31
2023-01-13T16:02:44.543Z,6.25
2023-01-13T16:05:12.794Z,6.20
2023-01-13T16:07:41.510Z,6.15
2023-01-13T16:20:41.453Z,6.02
2023-01-13T16:49:05.097Z,5.56
2023-01-13T17:03:17.681Z,5.15
2023-01-13T17:14:18.240Z,4.87
2023-01-13T17:16:33.139Z,4.81
2023-01-13T17:19:00.722Z,4.77
2023-01-13T17:25:56.820Z,4.70
2023-01-13T17:50:45.908Z,4.14
2023-01-13T17:53:30.661Z,4.04
2023-01-13T18:00:46.845Z,3.98
2023-01-13T18:03:38.014Z,3.89
2023-01-13T18:41:01.421Z,3.02
2023-01-13T18:43:33.085Z,2.92
2023-01-13T18:46:00.931Z,2.85
2023-01-13T18:48:31.127Z,2.80
2023-01-13T18:50:58.987Z,2.77
2023-01-13T18:53:26.564Z,2.74
2023-01-13T18:55:54.497Z,2.71
2023-01-13T18:58:22.385Z,2.69
2023-01-13T19:00:50.326Z,2.65
2023-01-13T19:03:29.746Z,2.62
2023-01-13T19:05:51.730Z,2.58
2023-01-13T19:08:19.469Z,2.53
2023-01-13T19:10:47.932Z,2.49
2023-01-13T19:13:16.350Z,2.48
2023-01-13T19:15:45.270Z,2.45
2023-01-13T19:18:17.459Z,2.44
2023-01-13T19:20:45.320Z,2.41
2023-01-13T19:23:13.182Z,2.38
2023-01-13T19:25:41.799Z,2.37
2023-01-13T19:28:10.227Z,2.36
2023-01-13T19:30:40.100Z,2.34
2023-01-13T19:33:08.285Z,2.32
2023-01-13T19:35:38.450Z,2.27
2023-01-13T19:38:07.161Z,2.23
2023-01-13T19:40:35.553Z,2.21
2023-01-13T19:43:24.095Z,2.18
2023-01-13T19:45:52.526Z,2.14
2023-01-13T19:48:24.856Z,2.06
2023-01-13T19:50:54.027Z,1.98
2023-01-13T19:53:23.617Z,2.01
2023-01-13T19:55:51.725Z,1.95
2023-01-13T19:58:22.798Z,1.89
2023-01-13T20:00:55.737Z,1.85
2023-01-13T20:03:30.430Z,1.80
2023-01-13T20:06:09.109Z,1.74
2023-01-13T20:08:37.927Z,1.69
2023-01-13T20:11:26.040Z,1.61
2023-01-13T20:13:54.149Z,1.56
2023-01-13T20:16:22.394Z,1.49
2023-01-13T20:18:51.062Z,1.47
2023-01-13T20:21:19.034Z,1.42
2023-01-13T20:23:51.531Z,1.37
2023-01-13T20:26:20.747Z,1.32
2023-01-13T20:28:48.709Z,1.28
2023-01-13T20:31:16.537Z,1.25
2023-01-13T20:33:47.931Z,1.19
2023-01-13T20:36:27.272Z,1.15
2023-01-13T20:39:00.915Z,1.11
2023-01-13T20:41:47.158Z,1.08
2023-01-13T20:44:15.279Z,1.06
2023-01-13T20:46:44.154Z,1.02
2023-01-13T20:49:14.639Z,1.01
2023-01-13T20:51:42.977Z,1.01
2023-01-13T20:54:11.071Z,1.00
2023-01-13T20:56:39.973Z,0.98
2023-01-13T20:59:08.496Z,0.96
2023-01-13T21:01:36.793Z,0.95
2023-01-13T21:04:06.543Z,0.98
2023-01-13T21:06:35.171Z,0.98
2023-01-13T21:09:03.028Z,0.98
2023-01-13T21:11:50.138Z,0.97
2023-01-13T21:14:40.549Z,0.95
2023-01-13T21:17:28.756Z,0.94
2023-01-13T21:19:56.433Z,0.89
2023-01-13T21:22:24.886Z,0.83
2023-01-13T21:24:52.795Z,0.80
2023-01-13T21:27:21.045Z,0.78
2023-01-13T21:29:50.875Z,0.78
2023-01-13T21:32:19.529Z,0.77
2023-01-13T21:34:47.792Z,0.75
2023-01-13T21:37:17.045Z,0.71
2023-01-13T21:39:45.233Z,0.69
2023-01-13T21:42:35.899Z,0.68
2023-01-13T21:45:23.089Z,0.69
2023-01-13T21:47:51.544Z,0.70
2023-01-13T21:50:23.140Z,0.69
2023-01-13T21:52:52.251Z,0.69
2023-01-13T21:55:24.921Z,0.69
2023-01-13T21:57:56.857Z,0.66
2023-01-13T22:00:28.536Z,0.67
2023-01-13T22:02:58.046Z,0.66
2023-01-13T22:05:26.637Z,0.65
2023-01-13T22:07:54.409Z,0.65
2023-01-13T22:10:25.921Z,0.65
2023-01-13T22:12:57.178Z,0.65
2023-01-13T22:15:27.762Z,0.66
2023-01-13T22:17:56.090Z,0.66
2023-01-13T22:20:23.964Z,0.66
2023-01-13T22:22:51.810Z,0.64
2023-01-13T22:25:19.894Z,0.64
2023-01-13T22:27:48.660Z,0.65
2023-01-13T22:30:21.260Z,0.65
2023-01-13T22:32:49.601Z,0.64
2023-01-13T22:35:17.314Z,0.64
2023-01-13T22:37:45.047Z,0.66
2023-01-13T22:40:13.244Z,0.65
2023-01-13T22:42:42.613Z,0.62
2023-01-13T22:45:13.167Z,0.61
2023-01-13T22:47:41.014Z,0.60
2023-01-13T22:50:11.944Z,0.58
2023-01-13T22:52:39.973Z,0.53
2023-01-13T22:55:08.336Z,0.48
2023-01-13T22:57:46.672Z,0.42
2023-01-13T23:00:07.222Z,0.38
2023-01-13T23:02:35.287Z,0.35
2023-01-13T23:05:03.168Z,0.32
2023-01-13T23:07:30.827Z,0.31
2023-01-13T23:09:59.078Z,0.28
2023-01-13T23:12:27.048Z,0.21
2023-01-13T23:14:55.126Z,0.21
2023-01-13T23:17:22.745Z,0.18
2023-01-13T23:19:50.623Z,0.16
2023-01-13T23:22:18.618Z,0.18
2023-01-13T23:24:46.474Z,0.17
2023-01-13T23:27:14.131Z,0.14
2023-01-13T23:29:42.139Z,0.13
2023-01-13T23:32:09.902Z,0.14
2023-01-13T23:34:37.699Z,0.15
2023-01-13T23:37:05.407Z,0.17
2023-01-13T23:39:33.151Z,0.14
2023-01-13T23:42:00.917Z,0.11
2023-01-13T23:44:28.940Z,0.11
2023-01-13T23:46:56.686Z,0.11
2023-01-13T23:49:24.543Z,0.10
2023-01-13T23:51:53.033Z,0.10
2023-01-13T23:54:22.636Z,0.10
2023-01-13T23:56:52.026Z,0.12
2023-01-13T23:59:20.148Z,0.13
